Time;durP1;ratioP1;P1;durP2;ratioP2;P2;SDS_P1;SDS_P2;PMS_P1;PMS_P2;Temp;Humidity;BMP_temperature;BMP_pressure;BME280_temperature;BME280_humidity;BME280_pressure;Samples;Min_cycle;Max_cycle;Signal;HPM_P1;HPM_P2
2022/02/10 00:04:05;;;;;;;5.73;3.70;;;;;;;5.84;100.00;101420.47;4997397;28;20209;-74
2022/02/10 00:06:53;;;;;;;5.20;3.83;;;;;;;5.81;100.00;101418.75;5001992;28;20291;-74
2022/02/10 00:15:20;;;;;;;4.40;3.43;;;;;;;5.77;100.00;101416.09;5003404;28;20200;-75
2022/02/10 00:17:48;;;;;;;4.83;3.77;;;;;;;5.74;100.00;101408.34;5000474;28;20621;-74
2022/02/10 00:20:23;;;;;;;4.53;3.40;;;;;;;5.72;100.00;101410.94;5003095;28;20308;-74
2022/02/10 00:23:12;;;;;;;5.60;3.77;;;;;;;5.70;100.00;101412.66;5000656;28;20576;-74
2022/02/10 00:34:14;;;;;;;5.53;3.43;;;;;;;5.73;100.00;101409.19;4980768;28;20227;-74
2022/02/10 00:36:45;;;;;;;4.17;3.43;;;;;;;5.75;100.00;101404.88;4998949;28;20200;-75
2022/02/10 00:39:26;;;;;;;4.77;3.67;;;;;;;5.77;100.00;101401.47;4997780;28;20311;-75
2022/02/10 00:41:52;;;;;;;4.40;3.20;;;;;;;5.79;100.00;101404.94;5002758;28;20282;-75
2022/02/10 00:44:20;;;;;;;6.27;3.30;;;;;;;5.80;100.00;101400.59;5004727;28;20197;-74
2022/02/10 00:46:46;;;;;;;4.43;3.40;;;;;;;5.82;100.00;101398.88;5002230;28;20196;-73
2022/02/10 00:49:13;;;;;;;4.80;3.63;;;;;;;5.84;100.00;101394.59;5000669;28;20228;-75
2022/02/10 00:51:39;;;;;;;4.67;3.63;;;;;;;5.84;100.00;101398.06;4998552;28;20311;-74
2022/02/10 00:54:06;;;;;;;4.97;4.17;;;;;;;5.87;100.00;101397.19;4998626;28;20298;-74
2022/02/10 00:56:32;;;;;;;5.57;4.00;;;;;;;5.87;100.00;101392.91;5002774;28;20197;-74
2022/02/10 00:59:10;;;;;;;3.80;3.30;;;;;;;5.88;100.00;101398.94;5002889;28;20213;-75
2022/02/10 01:07:12;;;;;;;4.00;3.60;;;;;;;5.90;100.00;101386.88;4970151;28;20310;-74
2022/02/10 01:12:31;;;;;;;6.00;3.50;;;;;;;5.89;100.00;101382.53;5000381;28;20687;-74
2022/02/10 01:31:26;;;;;;;5.83;3.80;;;;;;;5.89;100.00;101367.00;4997504;28;20212;-73
2022/02/10 01:33:54;;;;;;;4.83;3.93;;;;;;;5.90;100.00;101370.47;4999572;28;20274;-74
2022/02/10 01:36:21;;;;;;;5.10;4.00;;;;;;;5.89;100.00;101367.00;5005144;28;20201;-75
2022/02/10 01:38:48;;;;;;;4.87;3.77;;;;;;;5.89;100.00;101367.00;4997982;28;20222;-74
2022/02/10 01:41:53;;;;;;;4.53;3.53;;;;;;;5.90;100.00;101363.56;5002808;28;20659;-74
2022/02/10 01:58:10;;;;;;;5.87;3.90;;;;;;;5.85;100.00;101347.16;5003347;28;20698;-74
2022/02/10 02:03:25;;;;;;;6.17;3.67;;;;;;;5.84;100.00;101338.53;5003406;28;20215;-73
2022/02/10 02:06:00;;;;;;;4.43;3.53;;;;;;;5.82;100.00;101341.97;5001001;28;20208;-75
2022/02/10 02:08:29;;;;;;;5.97;4.10;;;;;;;5.82;100.00;101337.66;5000576;28;20201;-73
2022/02/10 02:10:56;;;;;;;6.53;3.70;;;;;;;5.81;100.00;101337.66;4996636;28;20654;-74
2022/02/10 02:13:23;;;;;;;4.37;3.43;;;;;;;5.82;100.00;101335.09;5004011;28;20209;-74
2022/02/10 02:15:51;;;;;;;3.80;3.40;;;;;;;5.80;100.00;101323.81;5002465;28;20201;-74
2022/02/10 02:18:18;;;;;;;3.90;3.50;;;;;;;5.80;100.00;101328.16;5001220;28;20283;-75
2022/02/10 02:20:47;;;;;;;5.17;3.60;;;;;;;5.79;100.00;101321.25;5000784;28;20295;-74
2022/02/10 02:23:15;;;;;;;4.27;3.40;;;;;;;5.82;100.00;101321.25;5000447;28;20662;-74
2022/02/10 02:25:42;;;;;;;6.03;3.80;;;;;;;5.81;100.00;101322.13;4994119;28;20667;-75
2022/02/10 02:28:12;;;;;;;5.33;3.40;;;;;;;5.82;100.00;101324.72;5000852;28;20283;-74
2022/02/10 02:30:42;;;;;;;4.60;3.73;;;;;;;5.83;100.00;101326.44;5003120;28;20235;-75
2022/02/10 02:36:22;;;;;;;6.27;4.13;;;;;;;5.82;100.00;101327.31;5001247;28;20208;-75
2022/02/10 02:39:13;;;;;;;4.30;3.60;;;;;;;5.82;100.00;101326.44;4997693;28;20222;-75
2022/02/10 03:06:43;;;;;;;5.77;3.90;;;;;;;5.88;100.00;101310.94;4990060;28;20705;-74
2022/02/10 03:09:13;;;;;;;4.70;3.70;;;;;;;5.87;100.00;101311.78;5001151;28;20578;-75
2022/02/10 03:11:43;;;;;;;5.97;4.13;;;;;;;5.87;100.00;101306.59;4999100;28;20208;-74
2022/02/10 03:14:13;;;;;;;6.77;3.80;;;;;;;5.86;100.00;101308.34;4999506;28;20578;-73
2022/02/10 03:17:06;;;;;;;5.77;3.80;;;;;;;5.87;100.00;101306.59;5000362;28;20209;-74
2022/02/10 03:19:51;;;;;;;5.47;3.47;;;;;;;5.85;100.00;101300.56;4999594;28;20625;-74
2022/02/10 03:22:34;;;;;;;4.77;3.50;;;;;;;5.85;100.00;101287.63;4999601;28;20283;-74
2022/02/10 04:01:13;;;;;;;5.80;4.07;;;;;;;5.65;100.00;101253.91;5004577;28;20281;-74
2022/02/10 04:04:07;;;;;;;4.47;3.83;;;;;;;5.64;100.00;101252.19;5004475;28;20251;-75
2022/02/10 04:12:39;;;;;;;5.37;4.20;;;;;;;5.62;100.00;101251.31;5003568;28;20193;-75
2022/02/10 04:15:16;;;;;;;6.67;4.30;;;;;;;5.61;100.00;101246.97;4996693;28;20197;-74
2022/02/10 04:18:07;;;;;;;5.90;4.13;;;;;;;5.60;100.00;101230.59;5005802;28;20200;-75
2022/02/10 04:20:48;;;;;;;5.20;3.60;;;;;;;5.60;100.00;101219.41;5003189;28;20291;-74
2022/02/10 04:23:27;;;;;;;6.20;3.97;;;;;;;5.59;100.00;101228.00;5006048;28;20570;-75
2022/02/10 04:26:06;;;;;;;5.10;3.67;;;;;;;5.58;100.00;101216.81;5001147;28;20260;-74
2022/02/10 04:28:49;;;;;;;6.77;4.40;;;;;;;5.56;100.00;101222.81;5002184;28;20280;-75
2022/02/10 04:31:46;;;;;;;5.87;4.60;;;;;;;5.55;100.00;101227.13;5002364;28;20209;-74
2022/02/10 04:40:31;;;;;;;5.93;4.27;;;;;;;5.54;100.00;101225.44;4999462;28;20223;-74
2022/02/10 04:54:40;;;;;;;5.83;4.10;;;;;;;5.50;100.00;101196.09;4994646;28;20277;-74
2022/02/10 04:57:29;;;;;;;4.30;3.30;;;;;;;5.50;100.00;101187.44;5000391;28;20235;-75
2022/02/10 05:00:15;;;;;;;6.27;3.77;;;;;;;5.51;100.00;101189.19;5004638;28;20216;-75
2022/02/10 05:17:05;;;;;;;4.47;3.70;;;;;;;5.48;100.00;101171.91;5001798;28;20263;-75
2022/02/10 05:20:03;;;;;;;4.40;3.50;;;;;;;5.47;100.00;101170.22;4995899;28;20312;-74
2022/02/10 05:22:43;;;;;;;5.27;3.70;;;;;;;5.48;100.00;101164.16;4998733;28;20209;-74
2022/02/10 05:33:34;;;;;;;5.20;3.50;;;;;;;5.49;100.00;101159.88;4998257;28;20205;-75
2022/02/10 05:36:04;;;;;;;8.13;3.53;;;;;;;5.53;100.00;101158.16;4997804;28;20250;-75
2022/02/10 05:38:34;;;;;;;5.53;3.90;;;;;;;5.52;100.00;101152.09;4998395;28;20201;-73
2022/02/10 05:41:47;;;;;;;5.43;4.00;;;;;;;5.52;100.00;101153.84;4998127;28;20212;-74
2022/02/10 05:44:28;;;;;;;4.97;3.40;;;;;;;5.49;100.00;101142.63;4997761;28;20251;-75
2022/02/10 05:47:20;;;;;;;6.57;3.80;;;;;;;5.49;100.00;101154.69;4994609;28;20589;-73
2022/02/10 05:50:29;;;;;;;4.63;3.57;;;;;;;5.46;100.00;101146.91;4999616;28;20282;-74
2022/02/10 05:53:19;;;;;;;8.47;3.83;;;;;;;5.46;100.00;101142.59;5014998;28;20212;-75
2022/02/10 05:55:52;;;;;;;4.17;3.07;;;;;;;5.46;100.00;101142.59;5001387;28;20208;-75
2022/02/10 05:58:28;;;;;;;4.10;3.53;;;;;;;5.45;100.00;101152.94;5002205;28;20214;-75
2022/02/10 06:53:25;;;;;;;10.33;3.77;;;;;;;5.59;100.00;101115.03;5000312;28;20200;-75
2022/02/10 06:56:17;;;;;;;4.77;3.70;;;;;;;5.60;100.00;101113.34;5001035;28;20204;-75
2022/02/10 07:04:36;;;;;;;11.80;7.00;;;;;;;5.65;100.00;101112.47;5001147;28;20209;-74
2022/02/10 07:07:27;;;;;;;9.57;5.27;;;;;;;5.68;100.00;101114.19;4998151;28;20205;-74
2022/02/10 07:13:05;;;;;;;7.33;5.57;;;;;;;5.73;100.00;101121.97;4974716;28;20613;-74
2022/02/10 07:15:54;;;;;;;7.40;5.13;;;;;;;5.76;100.00;101122.00;5001597;28;20286;-74
2022/02/10 07:43:48;;;;;;;3.53;3.00;;;;;;;5.85;100.00;101062.47;4999607;28;20204;-74
2022/02/10 07:49:11;;;;;;;5.63;3.90;;;;;;;5.86;100.00;101046.94;5004599;28;20236;-74
2022/02/10 07:51:58;;;;;;;8.07;4.70;;;;;;;5.89;100.00;101048.66;5000465;28;20200;-75
2022/02/10 07:54:34;;;;;;;5.23;3.73;;;;;;;5.90;100.00;101047.81;5010943;28;20229;-74
2022/02/10 07:57:12;;;;;;;14.20;7.00;;;;;;;5.94;100.00;101046.09;4998334;28;20680;-74
2022/02/10 08:00:17;;;;;;;13.40;7.90;;;;;;;6.01;100.00;101042.66;5003624;28;20616;-74
2022/02/10 08:49:53;;;;;;;4.73;3.23;;;;;;;6.94;100.00;101009.59;5001063;28;20233;-75
2022/02/10 08:55:34;;;;;;;17.73;7.63;;;;;;;7.09;100.00;101012.13;4979918;28;20836;-74
2022/02/10 09:04:06;;;;;;;6.97;4.40;;;;;;;7.25;100.00;101010.28;5000227;28;20255;-74
2022/02/10 09:06:53;;;;;;;4.03;2.80;;;;;;;7.34;98.77;101012.81;5000998;28;20698;-74
2022/02/10 09:20:52;;;;;;;5.63;2.37;;;;;;;7.65;96.66;100998.75;4998089;28;20233;-75
2022/02/10 09:56:34;;;;;;;3.53;2.47;;;;;;;8.21;90.04;100976.56;5003428;28;20205;-74
2022/02/10 09:59:24;;;;;;;4.97;2.37;;;;;;;8.27;88.89;100976.53;4999581;28;20247;-75
2022/02/10 10:02:01;;;;;;;3.37;2.50;;;;;;;8.35;89.52;100973.84;4999338;28;20583;-74
2022/02/10 10:04:34;;;;;;;3.70;2.90;;;;;;;8.38;89.18;100963.41;4997952;28;20207;-75
2022/02/10 10:07:18;;;;;;;7.73;3.77;;;;;;;8.50;89.16;100965.91;4997404;28;20255;-75
2022/02/10 10:09:55;;;;;;;4.27;3.10;;;;;;;8.55;87.18;100963.25;4996543;28;20226;-74
2022/02/10 10:12:53;;;;;;;5.43;3.47;;;;;;;8.53;88.37;100952.88;4998074;28;20218;-75
2022/02/10 10:15:35;;;;;;;5.00;2.40;;;;;;;8.66;87.57;100948.38;5001438;28;20567;-73
2022/02/10 10:21:06;;;;;;;10.20;6.53;;;;;;;8.80;86.38;100942.13;4996190;28;20364;-74
2022/02/10 10:23:49;;;;;;;3.73;2.27;;;;;;;8.84;86.02;100957.66;4996824;28;20334;-75
2022/02/10 10:26:34;;;;;;;3.80;2.33;;;;;;;8.85;85.55;100948.13;5004645;28;20200;-75
2022/02/10 10:52:01;;;;;;;3.13;2.30;;;;;;;9.42;82.78;100913.44;4981742;28;20264;-75
2022/02/10 10:54:34;;;;;;;7.90;2.80;;;;;;;9.36;80.63;100921.38;4980556;28;20327;-74
2022/02/10 10:57:07;;;;;;;5.80;2.90;;;;;;;9.31;82.65;100899.75;4991439;28;20728;-75
2022/02/10 10:59:52;;;;;;;20.97;10.63;;;;;;;9.21;81.93;100893.84;4993979;28;20238;-75
2022/02/10 11:22:50;;;;;;;3.70;2.83;;;;;;;9.50;79.42;100849.09;4996831;28;20711;-75
2022/02/10 11:36:27;;;;;;;4.07;3.00;;;;;;;9.72;80.66;100826.13;4999473;28;20197;-74
2022/02/10 11:39:34;;;;;;;4.33;3.70;;;;;;;9.79;79.61;100822.50;4999509;28;20240;-75
2022/02/10 11:45:53;;;;;;;5.60;3.40;;;;;;;9.88;77.51;100818.00;4996720;28;20219;-74
2022/02/10 12:01:35;;;;;;;5.80;3.13;;;;;;;10.03;73.65;100820.31;4997422;28;20220;-74
2022/02/10 13:23:21;;;;;;;5.90;3.57;;;;;;;10.07;71.46;100795.06;5059322;28;20205;-75
2022/02/10 13:26:23;;;;;;;7.20;4.63;;;;;;;9.63;73.90;100787.25;5061612;28;20677;-74
2022/02/10 14:13:20;;;;;;;18.83;10.70;;;;;;;8.87;77.69;100800.75;4961353;28;20591;-75
2022/02/10 14:16:04;;;;;;;11.03;7.27;;;;;;;8.78;78.71;100799.16;5017643;28;20250;-75
2022/02/10 14:18:32;;;;;;;18.73;12.03;;;;;;;8.74;79.27;100794.88;5046402;28;20191;-75
2022/02/10 14:21:05;;;;;;;13.93;7.93;;;;;;;8.69;78.82;100796.72;5045003;28;20291;-75
2022/02/10 14:29:01;;;;;;;9.30;6.83;;;;;;;8.58;79.19;100798.59;5038324;28;20342;-74
2022/02/10 14:31:29;;;;;;;7.10;5.97;;;;;;;8.53;80.19;100804.75;5040391;28;20629;-74
2022/02/10 14:33:57;;;;;;;10.13;7.13;;;;;;;8.50;80.07;100796.13;5044596;28;20265;-74
2022/02/10 14:36:29;;;;;;;11.33;7.60;;;;;;;8.43;81.11;100804.91;5044519;28;20214;-75
2022/02/10 14:39:08;;;;;;;9.13;6.17;;;;;;;8.41;81.54;100799.69;5042963;28;20639;-75
2022/02/10 15:29:48;;;;;;;7.30;5.40;;;;;;;7.55;88.34;100835.34;5073874;28;20221;-74
2022/02/10 15:54:01;;;;;;;9.80;5.57;;;;;;;7.18;90.80;100846.06;5074217;28;20657;-75
2022/02/10 15:56:49;;;;;;;9.50;5.57;;;;;;;7.10;91.68;100853.06;5074615;28;20212;-74
2022/02/10 16:18:30;;;;;;;9.07;5.90;;;;;;;6.86;97.03;100884.34;5069572;28;20235;-74
2022/02/10 16:21:00;;;;;;;10.30;6.10;;;;;;;6.85;96.37;100898.19;5073830;28;20230;-74
2022/02/10 16:23:29;;;;;;;9.37;6.37;;;;;;;6.82;96.84;100897.34;5080483;28;20195;-74
2022/02/10 16:26:09;;;;;;;8.87;6.43;;;;;;;6.81;97.74;100900.78;5076996;28;20281;-74
2022/02/10 16:28:38;;;;;;;9.20;5.43;;;;;;;6.77;97.91;100900.81;5059265;28;20632;-74
2022/02/10 16:31:04;;;;;;;7.23;5.97;;;;;;;6.73;98.83;100906.91;5055612;28;20285;-74
2022/02/10 16:33:32;;;;;;;8.67;5.47;;;;;;;6.71;98.96;100906.91;5055653;28;20185;-74
2022/02/10 16:35:59;;;;;;;11.00;5.97;;;;;;;6.70;98.94;100909.50;5054098;28;21261;-74
2022/02/10 16:38:27;;;;;;;10.37;6.10;;;;;;;6.69;99.16;100916.41;5056790;28;20230;-74
2022/02/10 16:40:55;;;;;;;9.77;6.07;;;;;;;6.65;99.21;100904.34;5055554;28;20728;-75
2022/02/10 16:43:22;;;;;;;9.50;6.40;;;;;;;6.66;99.13;100918.16;5059882;28;20697;-74
2022/02/10 16:45:49;;;;;;;8.47;6.30;;;;;;;6.66;98.69;100908.66;5057333;28;20216;-74
2022/02/10 16:48:15;;;;;;;10.87;6.93;;;;;;;6.63;98.85;100906.94;5056508;28;20200;-74
2022/02/10 16:50:44;;;;;;;12.57;7.97;;;;;;;6.62;98.80;100906.94;5060205;28;20220;-74
2022/02/10 16:53:13;;;;;;;11.80;7.37;;;;;;;6.62;98.72;100914.72;5059420;28;20562;-74
2022/02/10 16:55:46;;;;;;;10.67;6.93;;;;;;;6.60;99.46;100917.31;5056684;28;20582;-74
2022/02/10 16:58:22;;;;;;;10.37;6.67;;;;;;;6.60;100.00;100913.88;5057505;28;20191;-74
2022/02/10 17:01:11;;;;;;;9.47;7.37;;;;;;;6.55;100.00;100906.13;5054422;28;20210;-75
2022/02/10 17:03:49;;;;;;;10.07;7.57;;;;;;;6.53;100.00;100923.41;5063729;28;20191;-74
2022/02/10 17:15:14;;;;;;;3.10;2.30;;;;;;;6.01;100.00;100971.03;5029454;28;20265;-74
2022/02/10 17:18:02;;;;;;;3.67;2.20;;;;;;;5.81;100.00;100980.53;5061272;28;20624;-75
2022/02/10 17:20:41;;;;;;;2.83;1.80;;;;;;;5.68;100.00;100983.13;5052621;28;20552;-74
2022/02/10 17:26:02;;;;;;;3.77;2.00;;;;;;;5.43;100.00;100994.31;5052309;28;20194;-72
2022/02/10 17:28:30;;;;;;;3.80;1.80;;;;;;;5.29;100.00;100997.78;5051273;28;20202;-74
2022/02/10 17:33:53;;;;;;;2.10;1.50;;;;;;;5.12;100.00;100999.47;5033015;28;20250;-74
2022/02/10 17:36:30;;;;;;;4.33;2.70;;;;;;;5.08;100.00;101006.34;5052801;28;20615;-74
2022/02/10 17:42:09;;;;;;;3.40;2.00;;;;;;;4.95;100.00;101012.31;5058189;28;20203;-74
2022/02/10 17:44:53;;;;;;;3.43;2.10;;;;;;;4.84;100.00;101011.44;5052263;28;20294;-74
2022/02/10 17:52:59;;;;;;;1.60;1.20;;;;;;;4.59;100.00;101016.50;5061526;28;20960;-74
2022/02/10 17:55:26;;;;;;;3.37;1.87;;;;;;;4.57;100.00;101009.59;5052278;28;20243;-74
2022/02/10 17:57:52;;;;;;;2.67;1.77;;;;;;;4.54;100.00;101007.88;5055320;28;20803;-74
2022/02/10 18:00:21;;;;;;;3.07;1.33;;;;;;;4.47;100.00;101016.44;5054936;28;20223;-74
2022/02/10 18:02:47;;;;;;;2.40;1.60;;;;;;;4.40;100.00;101017.22;5056912;28;20251;-74
2022/02/10 18:05:36;;;;;;;2.90;1.70;;;;;;;4.29;100.00;101035.25;5049460;28;20209;-74
2022/02/10 18:08:05;;;;;;;3.53;1.73;;;;;;;4.25;100.00;101046.41;5049546;28;20668;-73
2022/02/10 18:11:17;;;;;;;2.50;1.67;;;;;;;4.20;100.00;101041.22;5062099;28;20230;-74
2022/02/10 18:13:44;;;;;;;5.70;2.70;;;;;;;4.12;100.00;101043.75;5061173;28;20609;-74
2022/02/10 18:16:17;;;;;;;8.53;4.43;;;;;;;4.13;100.00;101037.75;5063851;28;20352;-74
2022/02/10 18:18:50;;;;;;;10.60;5.53;;;;;;;4.12;100.00;101036.00;5059088;28;20222;-74
2022/02/10 18:21:32;;;;;;;4.60;3.00;;;;;;;4.09;100.00;101027.38;5060881;28;20203;-73
2022/02/10 18:24:18;;;;;;;2.40;1.87;;;;;;;4.08;100.00;101023.06;5054194;28;20205;-74
2022/02/10 18:27:00;;;;;;;4.23;2.40;;;;;;;4.06;100.00;101037.69;5058282;28;20191;-74
2022/02/10 18:29:59;;;;;;;3.00;2.10;;;;;;;4.02;100.00;101041.09;5051258;28;20226;-74
2022/02/10 19:01:34;;;;;;;2.47;1.50;;;;;;;3.86;100.00;101071.06;5007884;28;20207;-74
2022/02/10 19:06:14;;;;;;;3.40;2.57;;;;;;;3.82;100.00;101058.97;5052629;28;20224;-74
2022/02/10 19:08:57;;;;;;;4.13;3.37;;;;;;;3.82;100.00;101058.97;5048455;28;20274;-74
2022/02/10 19:11:24;;;;;;;4.20;3.23;;;;;;;3.82;100.00;101058.97;5051364;28;20199;-72
2022/02/10 19:13:53;;;;;;;6.27;3.90;;;;;;;3.78;100.00;101058.09;5051897;28;20205;-74
2022/02/10 19:16:20;;;;;;;4.97;3.43;;;;;;;3.78;100.00;101068.41;5059246;28;20697;-74
2022/02/10 19:18:46;;;;;;;7.70;3.57;;;;;;;3.77;100.00;101061.53;5061862;28;20220;-74
2022/02/10 19:21:14;;;;;;;5.50;4.07;;;;;;;3.76;100.00;101058.09;5058780;28;20195;-74
2022/02/10 19:23:40;;;;;;;6.23;3.83;;;;;;;3.76;100.00;101065.84;5051928;28;20213;-74
2022/02/10 19:26:07;;;;;;;4.57;3.97;;;;;;;3.75;100.00;101058.09;5054947;28;20198;-74
2022/02/10 19:28:33;;;;;;;5.60;3.57;;;;;;;3.76;100.00;101062.38;5058958;28;20206;-74
2022/02/10 19:31:01;;;;;;;5.07;3.97;;;;;;;3.73;100.00;101064.91;5056496;28;20831;-74
2022/02/10 19:33:27;;;;;;;4.20;3.27;;;;;;;3.71;100.00;101062.34;5049842;28;20692;-73
2022/02/10 19:35:54;;;;;;;6.33;3.23;;;;;;;3.71;100.00;101058.88;5047748;28;20576;-73
2022/02/10 19:38:23;;;;;;;4.47;3.50;;;;;;;3.69;100.00;101056.28;5050601;28;20258;-74
2022/02/10 19:40:53;;;;;;;5.47;3.33;;;;;;;3.69;100.00;101056.28;5054973;28;20584;-74
2022/02/10 19:43:21;;;;;;;5.30;3.40;;;;;;;3.69;100.00;101060.59;5054207;28;20215;-74
2022/02/10 19:45:48;;;;;;;4.13;3.23;;;;;;;3.69;100.00;101064.03;5046984;28;20227;-74
2022/02/10 19:48:15;;;;;;;5.47;3.17;;;;;;;3.68;100.00;101064.91;5055844;28;20300;-74
2022/02/10 19:50:42;;;;;;;4.97;3.07;;;;;;;3.68;100.00;101071.78;5053062;28;20230;-74
2022/02/10 19:53:10;;;;;;;4.80;3.23;;;;;;;3.68;100.00;101077.78;5059031;28;20244;-74
2022/02/10 19:55:41;;;;;;;4.07;3.43;;;;;;;3.67;100.00;101080.34;5053961;28;20287;-74
2022/02/10 19:58:11;;;;;;;4.00;2.93;;;;;;;3.67;100.00;101080.34;5059148;28;20301;-74
2022/02/10 20:00:42;;;;;;;4.37;3.07;;;;;;;3.69;100.00;101078.66;5054049;28;20223;-74
2022/02/10 20:03:13;;;;;;;4.93;3.30;;;;;;;3.68;100.00;101082.94;5052243;28;20915;-74
2022/02/10 20:05:45;;;;;;;3.83;3.10;;;;;;;3.66;100.00;101083.78;5064442;28;20208;-74
2022/02/10 20:08:12;;;;;;;6.00;3.10;;;;;;;3.66;100.00;101086.34;5061931;28;20644;-74
2022/02/10 20:10:40;;;;;;;4.53;2.80;;;;;;;3.66;100.00;101081.19;5058821;28;20867;-74
2022/02/10 20:13:06;;;;;;;3.03;2.70;;;;;;;3.65;100.00;101082.06;5056309;28;20183;-73
2022/02/10 20:15:34;;;;;;;4.27;2.63;;;;;;;3.64;100.00;101088.94;5057112;28;20627;-74
2022/02/10 20:18:02;;;;;;;5.13;3.10;;;;;;;3.64;100.00;101085.47;5058391;28;20597;-74
2022/02/10 20:20:28;;;;;;;5.30;3.67;;;;;;;3.64;100.00;101094.09;5058262;28;20265;-74
2022/02/10 20:22:55;;;;;;;3.77;3.10;;;;;;;3.63;100.00;101084.63;5062949;28;20212;-74
2022/02/10 20:25:22;;;;;;;5.67;2.63;;;;;;;3.63;100.00;101083.75;5059414;28;20727;-74
2022/02/10 20:27:50;;;;;;;3.23;2.00;;;;;;;3.61;100.00;101083.75;5061253;28;20198;-74
2022/02/10 20:30:16;;;;;;;4.40;2.30;;;;;;;3.60;100.00;101090.59;5065627;28;20215;-74
2022/02/10 20:32:43;;;;;;;2.63;2.17;;;;;;;3.60;100.00;101085.44;5063259;28;20854;-74
2022/02/10 20:35:11;;;;;;;2.33;2.13;;;;;;;3.61;100.00;101088.91;5064992;28;20294;-74
2022/02/10 20:37:38;;;;;;;3.57;2.00;;;;;;;3.59;100.00;101088.88;5057446;28;20221;-74
2022/02/10 20:40:06;;;;;;;3.87;2.10;;;;;;;3.60;100.00;101093.16;5062575;28;20223;-74
2022/02/10 20:42:34;;;;;;;3.90;2.20;;;;;;;3.59;100.00;101088.03;5064940;28;20190;-74
2022/02/10 20:45:02;;;;;;;3.23;2.20;;;;;;;3.58;100.00;101094.88;5062615;28;20202;-74
2022/02/10 20:47:29;;;;;;;5.63;2.30;;;;;;;3.59;100.00;101093.19;5058890;28;20199;-74
2022/02/10 20:49:55;;;;;;;2.30;2.00;;;;;;;3.58;100.00;101081.97;5059882;28;20223;-74
2022/02/10 20:52:22;;;;;;;3.00;2.23;;;;;;;3.59;100.00;101080.28;5058852;28;20194;-74
2022/02/10 20:54:48;;;;;;;3.37;2.27;;;;;;;3.61;100.00;101091.47;5064968;28;20703;-74
2022/02/10 20:57:15;;;;;;;5.00;2.37;;;;;;;3.62;100.00;101084.59;5064599;28;20219;-74
2022/02/10 20:59:45;;;;;;;3.00;2.10;;;;;;;3.63;100.00;101083.75;5059033;28;20571;-74
2022/02/10 21:02:15;;;;;;;2.77;2.00;;;;;;;3.65;100.00;101088.06;5057892;28;20289;-74
2022/02/10 21:04:48;;;;;;;2.80;1.97;;;;;;;3.66;100.00;101073.44;5062243;28;20198;-74
2022/02/10 21:07:19;;;;;;;2.97;2.00;;;;;;;3.66;100.00;101071.75;5060480;28;20204;-74
2022/02/10 21:09:52;;;;;;;2.63;2.10;;;;;;;3.67;100.00;101072.63;5056686;28;20778;-74
2022/02/10 21:12:19;;;;;;;3.40;2.50;;;;;;;3.65;100.00;101070.03;5059639;28;20329;-74
2022/02/10 21:14:46;;;;;;;3.33;2.40;;;;;;;3.65;100.00;101067.44;5063231;28;20199;-74
2022/02/10 21:17:21;;;;;;;6.57;2.47;;;;;;;3.64;100.00;101067.41;5058975;28;20227;-74
2022/02/10 21:19:47;;;;;;;4.00;2.40;;;;;;;3.63;100.00;101057.97;5058842;28;20223;-74
2022/02/10 21:22:17;;;;;;;5.97;2.37;;;;;;;3.62;100.00;101064.81;5062680;28;20211;-74
2022/02/10 21:24:48;;;;;;;3.33;2.33;;;;;;;3.63;100.00;101069.16;5054901;28;20203;-74
2022/02/10 21:27:28;;;;;;;3.83;2.37;;;;;;;3.62;100.00;101058.81;5058332;28;20606;-74
2022/02/10 21:29:58;;;;;;;3.37;2.30;;;;;;;3.62;100.00;101061.38;5059880;28;20300;-74
2022/02/10 21:32:28;;;;;;;4.27;2.50;;;;;;;3.59;100.00;101062.25;5066029;28;20202;-74
2022/02/10 21:35:15;;;;;;;3.40;2.57;;;;;;;3.58;100.00;101061.34;5055151;28;20232;-74
2022/02/10 21:37:48;;;;;;;4.37;2.37;;;;;;;3.57;100.00;101046.75;5059078;28;20219;-74
2022/02/10 21:40:27;;;;;;;3.20;2.40;;;;;;;3.57;100.00;101051.91;5057243;28;20218;-74
2022/02/10 21:52:33;;;;;;;7.00;2.67;;;;;;;3.55;100.00;101056.19;5054755;28;20836;-74
2022/02/10 21:54:36;;;;;;;4.50;2.90;;;;;;;3.57;100.00;101061.34;5057497;28;20282;-74
2022/02/10 22:06:14;;;;;;;7.43;3.00;;;;;;;3.60;100.00;101054.50;5136629;27;20702;-74
2022/02/10 22:09:10;;;;;;;5.17;3.60;;;;;;;3.59;100.00;101054.50;5136948;27;20568;-74
2022/02/10 22:11:58;;;;;;;6.63;3.83;;;;;;;3.60;100.00;101054.50;5137714;27;20315;-73
2022/02/10 22:17:28;;;;;;;10.87;4.10;;;;;;;3.59;100.00;101042.47;5134068;27;20219;-73
2022/02/10 22:19:59;;;;;;;8.17;4.10;;;;;;;3.58;100.00;101047.59;5130040;27;20585;-74
2022/02/10 22:22:35;;;;;;;7.23;3.97;;;;;;;3.59;100.00;101039.03;5138078;27;20196;-73
2022/02/10 22:25:04;;;;;;;9.23;3.93;;;;;;;3.57;100.00;101036.44;5135633;27;20208;-74
2022/02/10 22:27:34;;;;;;;7.77;4.40;;;;;;;3.55;100.00;101043.31;5140401;27;20207;-73
2022/02/10 22:30:07;;;;;;;9.90;3.77;;;;;;;3.54;100.00;101054.44;5130660;27;20219;-73
2022/02/10 22:32:46;;;;;;;7.43;4.37;;;;;;;3.54;100.00;101051.00;5135721;27;20236;-73
2022/02/10 22:35:13;;;;;;;7.57;4.37;;;;;;;3.54;100.00;101059.59;5135881;27;20195;-74
2022/02/10 22:37:41;;;;;;;11.03;4.77;;;;;;;3.53;100.00;101052.72;5141247;27;20197;-72
2022/02/10 22:40:23;;;;;;;8.80;4.47;;;;;;;3.54;100.00;101061.31;5135200;27;20268;-75
2022/02/10 22:42:49;;;;;;;7.83;4.30;;;;;;;3.53;100.00;101059.59;5137163;27;20204;-74
2022/02/10 22:45:17;;;;;;;11.40;4.93;;;;;;;3.53;100.00;101057.88;5135007;27;20220;-73
2022/02/10 22:47:44;;;;;;;8.43;4.93;;;;;;;3.52;100.00;101052.72;5136247;27;20586;-74
2022/02/10 22:50:10;;;;;;;7.87;5.00;;;;;;;3.52;100.00;101052.72;5134652;27;20258;-74
2022/02/10 22:52:37;;;;;;;8.97;4.77;;;;;;;3.51;100.00;101049.25;5134312;27;20200;-74
2022/02/10 22:55:06;;;;;;;8.10;4.93;;;;;;;3.49;100.00;101056.13;5137078;27;20200;-73
2022/02/10 22:57:32;;;;;;;9.17;4.93;;;;;;;3.48;100.00;101056.94;5134728;27;20196;-73
2022/02/10 23:00:02;;;;;;;7.10;4.53;;;;;;;3.48;100.00;101061.25;5136942;27;20230;-74
2022/02/10 23:02:30;;;;;;;8.77;4.47;;;;;;;3.48;100.00;101062.09;5136109;27;20256;-73
2022/02/10 23:04:56;;;;;;;7.17;4.47;;;;;;;3.47;100.00;101057.81;5134212;27;21126;-74
2022/02/10 23:07:22;;;;;;;8.03;5.43;;;;;;;3.45;100.00;101056.94;5131278;27;20530;-74
2022/02/10 23:09:53;;;;;;;7.73;5.23;;;;;;;3.45;100.00;101056.94;5134646;27;20229;-74
2022/02/10 23:12:20;;;;;;;8.07;5.13;;;;;;;3.45;100.00;101056.94;5138602;27;20203;-74
2022/02/10 23:14:47;;;;;;;7.37;4.80;;;;;;;3.44;100.00;101065.50;5138909;27;20278;-74
2022/02/10 23:17:14;;;;;;;10.70;5.97;;;;;;;3.45;100.00;101074.09;5122127;27;20193;-73
2022/02/10 23:19:40;;;;;;;7.63;5.47;;;;;;;3.45;100.00;101074.09;5123119;27;20892;-73
2022/02/10 23:22:06;;;;;;;11.80;5.63;;;;;;;3.44;100.00;101068.09;5124725;27;20197;-74
2022/02/10 23:24:33;;;;;;;9.53;5.90;;;;;;;3.44;100.00;101067.25;5125239;27;20214;-73
2022/02/10 23:27:00;;;;;;;12.23;5.70;;;;;;;3.42;100.00;101057.75;5122066;27;20205;-74
2022/02/10 23:29:27;;;;;;;9.43;5.17;;;;;;;3.41;100.00;101071.53;5127353;27;20208;-74
2022/02/10 23:31:54;;;;;;;10.27;5.57;;;;;;;3.42;100.00;101072.38;5116311;27;20314;-73
2022/02/10 23:34:20;;;;;;;11.70;6.33;;;;;;;3.43;100.00;101074.13;5122101;27;20201;-74
2022/02/10 23:36:50;;;;;;;11.73;5.63;;;;;;;3.44;100.00;101074.97;5124534;27;20197;-74
2022/02/10 23:39:21;;;;;;;11.20;6.30;;;;;;;3.42;100.00;101069.78;5124884;27;20307;-74
2022/02/10 23:42:13;;;;;;;13.60;6.50;;;;;;;3.46;100.00;101070.69;5117777;27;20203;-73
2022/02/10 23:44:44;;;;;;;11.13;6.23;;;;;;;3.45;100.00;101064.69;5117075;27;20232;-74
2022/02/10 23:47:16;;;;;;;12.23;6.37;;;;;;;3.45;100.00;101066.38;5121824;27;20192;-74
2022/02/10 23:49:42;;;;;;;12.53;6.13;;;;;;;3.46;100.00;101066.38;5126042;27;20243;-74
2022/02/10 23:52:10;;;;;;;12.73;7.47;;;;;;;3.48;100.00;101061.25;5123787;27;20196;-74
2022/02/10 23:54:39;;;;;;;13.00;6.47;;;;;;;3.49;100.00;101063.84;5128478;27;20597;-74
2022/02/10 23:57:11;;;;;;;12.10;7.10;;;;;;;3.50;100.00;101062.13;5123296;27;20196;-74
